createdAt,value
2022-09-24T00:01:51.100Z,96.66
2022-09-24T00:04:25.700Z,96.83
2022-09-24T00:06:55.159Z,96.63
2022-09-24T00:09:23.174Z,96.82
2022-09-24T00:11:53.916Z,96.53
2022-09-24T00:14:21.392Z,96.68
2022-09-24T00:16:49.754Z,96.81
2022-09-24T00:19:19.324Z,96.92
2022-09-24T00:21:47.051Z,96.87
2022-09-24T00:24:37.101Z,96.88
2022-09-24T00:27:06.374Z,96.98
2022-09-24T00:29:35.576Z,96.91
2022-09-24T00:32:06.184Z,96.94
2022-09-24T00:34:34.210Z,96.89
2022-09-24T00:37:01.857Z,96.96
2022-09-24T00:39:29.274Z,97.08
2022-09-24T00:41:57.071Z,96.83
2022-09-24T00:44:46.358Z,96.72
2022-09-24T00:47:36.105Z,96.66
2022-09-24T00:50:11.311Z,96.70
2022-09-24T00:52:45.689Z,96.62
2022-09-24T00:55:14.329Z,96.74
2022-09-24T00:57:42.470Z,96.55
2022-09-24T01:00:11.014Z,96.70
2022-09-24T01:02:41.219Z,96.47
2022-09-24T01:05:10.250Z,96.48
2022-09-24T01:07:37.770Z,96.43
2022-09-24T01:10:06.612Z,96.52
2022-09-24T01:13:04.221Z,96.10
2022-09-24T01:15:41.857Z,96.21
2022-09-24T01:18:38.307Z,96.25
2022-09-24T01:21:15.091Z,96.39
2022-09-24T01:24:18.514Z,96.36
2022-09-24T01:27:19.841Z,96.28
2022-09-24T01:29:53.346Z,96.47
2022-09-24T01:32:33.301Z,96.24
2022-09-24T01:35:18.195Z,96.58
2022-09-24T01:38:02.246Z,96.40
2022-09-24T01:40:31.440Z,96.52
2022-09-24T01:43:02.343Z,96.36
2022-09-24T01:45:31.828Z,96.39
2022-09-24T01:48:03.520Z,96.34
2022-09-24T01:50:40.499Z,96.37
2022-09-24T01:53:16.285Z,96.39
2022-09-24T01:55:51.101Z,96.28
2022-09-24T01:58:23.643Z,96.41
2022-09-24T02:00:57.172Z,96.20
2022-09-24T02:03:31.367Z,96.25
2022-09-24T02:06:13.478Z,96.21
2022-09-24T02:08:48.007Z,96.12
2022-09-24T02:11:19.669Z,95.91
2022-09-24T02:14:23.577Z,95.91
2022-09-24T02:16:52.219Z,95.78
2022-09-24T02:19:26.519Z,95.75
2022-09-24T02:21:54.960Z,95.86
2022-09-24T02:24:47.743Z,95.45
2022-09-24T02:27:15.907Z,95.77
2022-09-24T02:29:44.460Z,95.69
2022-09-24T02:32:17.769Z,95.66
2022-09-24T02:34:47.263Z,95.72
2022-09-24T02:37:16.593Z,95.62
2022-09-24T02:39:44.316Z,95.43
2022-09-24T02:42:14.736Z,95.32
2022-09-24T02:44:47.189Z,95.28
2022-09-24T02:47:14.917Z,95.06
2022-09-24T02:49:42.328Z,95.23
2022-09-24T02:52:10.395Z,94.97
2022-09-24T02:54:38.381Z,95.09
2022-09-24T02:57:06.215Z,95.05
2022-09-24T02:59:33.735Z,94.94
2022-09-24T03:02:03.829Z,94.98
2022-09-24T03:04:31.846Z,94.94
2022-09-24T03:06:59.365Z,94.92
2022-09-24T03:09:26.668Z,95.09
2022-09-24T03:11:54.164Z,95.12
2022-09-24T03:14:21.623Z,95.19
2022-09-24T03:16:50.062Z,95.08
2022-09-24T03:19:17.395Z,95.23
2022-09-24T03:21:47.280Z,95.01
2022-09-24T03:24:14.717Z,95.08
2022-09-24T03:26:42.345Z,95.23
2022-09-24T03:29:10.445Z,95.00
2022-09-24T03:31:39.065Z,95.11
2022-09-24T03:34:06.520Z,94.98
2022-09-24T03:36:34.210Z,95.11
2022-09-24T03:39:01.610Z,94.89
2022-09-24T03:41:29.023Z,95.03
2022-09-24T03:43:57.561Z,94.92
2022-09-24T03:46:28.486Z,94.84
2022-09-24T03:48:57.929Z,94.81
2022-09-24T03:51:26.505Z,94.54
2022-09-24T03:53:53.838Z,94.69
2022-09-24T03:56:21.423Z,94.74
2022-09-24T03:58:50.110Z,94.69
2022-09-24T04:01:21.266Z,94.54
2022-09-24T04:03:49.911Z,94.35
2022-09-24T04:06:20.757Z,94.08
2022-09-24T04:08:51.089Z,94.49
2022-09-24T04:11:18.436Z,94.37
2022-09-24T04:13:47.796Z,94.50
2022-09-24T04:16:15.407Z,94.62
2022-09-24T04:18:45.735Z,94.91
2022-09-24T04:21:13.289Z,94.94
2022-09-24T04:23:41.799Z,94.92
2022-09-24T04:26:09.474Z,94.81
2022-09-24T04:28:36.925Z,94.62
2022-09-24T04:31:05.200Z,94.69
2022-09-24T04:33:32.925Z,94.54
2022-09-24T04:36:01.532Z,94.89
2022-09-24T04:38:31.277Z,94.64
2022-09-24T04:41:07.028Z,94.96
2022-09-24T04:43:36.128Z,94.85
2022-09-24T04:46:03.713Z,94.81
2022-09-24T04:48:31.808Z,94.64
2022-09-24T04:50:59.315Z,94.72
2022-09-24T04:53:27.167Z,95.00
2022-09-24T04:55:54.571Z,94.96
2022-09-24T04:58:25.407Z,95.01
2022-09-24T05:00:53.509Z,94.73
2022-09-24T05:03:23.503Z,94.68
2022-09-24T05:05:51.155Z,94.77
2022-09-24T05:08:18.508Z,94.61
2022-09-24T05:10:45.979Z,94.94
2022-09-24T05:13:13.392Z,94.73
2022-09-24T05:15:43.175Z,94.99
2022-09-24T05:18:10.980Z,94.71
2022-09-24T05:20:38.355Z,94.90
2022-09-24T05:23:07.389Z,94.91
2022-09-24T05:25:54.816Z,94.67
2022-09-24T05:28:22.230Z,94.66
2022-09-24T05:30:49.915Z,94.92
2022-09-24T05:33:17.283Z,94.86
2022-09-24T05:35:58.841Z,95.21
2022-09-24T05:38:26.603Z,94.83
2022-09-24T05:40:54.880Z,94.48
2022-09-24T05:43:22.705Z,94.03
2022-09-24T05:45:50.719Z,93.99
2022-09-24T05:48:18.169Z,93.56
2022-09-24T05:50:45.784Z,93.59
2022-09-24T05:53:13.314Z,93.35
2022-09-24T05:55:43.145Z,93.02
2022-09-24T05:58:11.678Z,92.98
2022-09-24T06:00:39.100Z,92.72
2022-09-24T06:03:11.814Z,92.55
2022-09-24T06:05:44.836Z,92.27
2022-09-24T06:08:15.237Z,92.21
2022-09-24T06:10:45.526Z,92.13
2022-09-24T06:13:16.583Z,92.30
2022-09-24T06:15:44.836Z,92.42
2022-09-24T06:18:12.813Z,92.35
2022-09-24T06:20:40.384Z,92.54
2022-09-24T06:23:08.138Z,92.73
2022-09-24T06:25:35.707Z,92.52
2022-09-24T06:28:04.739Z,92.42
2022-09-24T06:30:41.344Z,92.23
2022-09-24T06:33:11.631Z,92.24
2022-09-24T06:35:42.013Z,92.25
2022-09-24T06:38:13.462Z,92.47
2022-09-24T06:40:42.968Z,92.38
2022-09-24T06:43:12.056Z,92.31
2022-09-24T06:45:40.858Z,92.55
2022-09-24T06:48:11.194Z,92.59
2022-09-24T06:50:43.854Z,92.60
2022-09-24T06:53:13.063Z,92.76
2022-09-24T06:55:46.934Z,92.66
2022-09-24T06:58:21.719Z,92.87
2022-09-24T07:01:01.701Z,93.03
2022-09-24T07:03:31.639Z,93.10
2022-09-24T07:06:05.292Z,93.17
2022-09-24T07:08:35.702Z,93.03
2022-09-24T07:11:05.481Z,93.37
2022-09-24T07:13:32.836Z,93.58
2022-09-24T07:16:01.548Z,93.51
2022-09-24T07:18:30.467Z,93.58
2022-09-24T07:20:57.831Z,93.75
2022-09-24T07:23:26.216Z,93.41
2022-09-24T07:25:56.836Z,93.49
2022-09-24T07:28:25.155Z,93.42
2022-09-24T07:30:59.820Z,93.79
2022-09-24T07:33:30.871Z,93.87
2022-09-24T07:35:58.316Z,93.86
2022-09-24T07:38:25.826Z,93.87
2022-09-24T07:40:58.385Z,93.86
2022-09-24T07:43:26.922Z,94.30
2022-09-24T07:45:55.788Z,94.29
2022-09-24T07:48:23.658Z,94.30
2022-09-24T07:50:51.386Z,94.64
2022-09-24T07:53:18.840Z,94.77
2022-09-24T07:55:46.477Z,95.06
2022-09-24T07:58:14.595Z,95.26
2022-09-24T08:00:42.843Z,95.33
2022-09-24T08:03:10.967Z,95.68
2022-09-24T08:05:45.600Z,95.81
2022-09-24T08:08:14.870Z,95.85
2022-09-24T08:10:43.065Z,95.96
2022-09-24T08:13:10.896Z,95.98
2022-09-24T08:15:38.385Z,96.09
2022-09-24T08:18:05.841Z,96.09
2022-09-24T08:20:33.884Z,96.12
2022-09-24T08:23:06.521Z,96.22
2022-09-24T08:25:36.183Z,96.55
2022-09-24T08:28:08.194Z,96.38
2022-09-24T08:30:35.975Z,96.18
2022-09-24T08:33:05.514Z,96.06
2022-09-24T08:35:35.093Z,96.04
2022-09-24T08:38:03.729Z,96.14
2022-09-24T08:40:37.125Z,96.06
2022-09-24T08:43:29.267Z,96.25
2022-09-24T08:46:18.296Z,96.31
2022-09-24T08:48:51.683Z,96.18
2022-09-24T08:51:20.924Z,96.00
2022-09-24T08:53:55.021Z,96.06
2022-09-24T08:56:36.424Z,96.14
2022-09-24T08:59:24.560Z,95.72
2022-09-24T09:02:15.788Z,95.83
2022-09-24T09:05:18.142Z,95.84
2022-09-24T09:08:45.057Z,96.12
2022-09-24T09:11:09.336Z,96.67
2022-09-24T09:13:45.487Z,96.88
2022-09-24T09:16:32.551Z,96.97
2022-09-24T09:19:07.610Z,97.26
2022-09-24T09:21:42.171Z,97.43
2022-09-24T09:24:23.367Z,97.42
2022-09-24T09:26:56.979Z,97.29
2022-09-24T09:29:28.054Z,97.73
2022-09-24T09:32:27.650Z,97.68
2022-09-24T09:34:59.069Z,97.78
2022-09-24T09:37:34.800Z,100.00
2022-09-24T09:40:27.644Z,100.00
2022-09-24T09:43:13.351Z,100.00
2022-09-24T09:45:57.654Z,100.00
2022-09-24T09:48:31.054Z,100.00
2022-09-24T09:51:06.800Z,100.00
2022-09-24T09:53:34.325Z,100.00
2022-09-24T09:56:07.894Z,100.00
2022-09-24T09:58:40.160Z,100.00
2022-09-24T10:01:18.667Z,100.00
2022-09-24T10:03:46.446Z,100.00
2022-09-24T10:06:25.887Z,100.00
2022-09-24T10:08:54.345Z,100.00
2022-09-24T10:11:22.469Z,100.00
2022-09-24T10:14:03.572Z,100.00
2022-09-24T10:16:38.093Z,100.00
2022-09-24T10:19:22.964Z,100.00
2022-09-24T10:21:54.983Z,100.00
2022-09-24T10:24:25.981Z,100.00
2022-09-24T10:26:54.454Z,100.00
2022-09-24T10:29:45.492Z,100.00
2022-09-24T10:32:24.618Z,100.00
2022-09-24T10:35:01.098Z,100.00
2022-09-24T10:37:29.464Z,100.00
2022-09-24T10:40:01.352Z,100.00
2022-09-24T10:42:31.143Z,100.00
2022-09-24T10:45:02.211Z,100.00
2022-09-24T10:47:43.915Z,100.00
2022-09-24T10:50:17.219Z,100.00
2022-09-24T10:52:54.062Z,100.00
2022-09-24T10:55:49.829Z,100.00
2022-09-24T10:58:34.633Z,100.00
2022-09-24T11:01:20.379Z,100.00
2022-09-24T11:04:19.204Z,100.00
2022-09-24T11:07:26.409Z,100.00
2022-09-24T11:10:23.386Z,100.00
2022-09-24T11:13:12.703Z,100.00
2022-09-24T11:15:43.074Z,100.00
2022-09-24T11:18:25.741Z,100.00
2022-09-24T11:21:11.496Z,100.00
2022-09-24T11:23:46.883Z,100.00
2022-09-24T11:26:28.453Z,100.00
2022-09-24T11:29:08.163Z,100.00
2022-09-24T11:31:42.596Z,100.00
2022-09-24T11:34:37.834Z,100.00
2022-09-24T11:37:20.615Z,100.00
2022-09-24T11:39:54.073Z,100.00
2022-09-24T11:42:21.546Z,100.00
2022-09-24T11:45:27.319Z,100.00
2022-09-24T11:48:19.526Z,100.00
2022-09-24T11:51:02.335Z,100.00
2022-09-24T11:53:45.802Z,100.00
2022-09-24T11:56:20.954Z,100.00
2022-09-24T11:59:09.645Z,100.00
2022-09-24T12:01:40.459Z,100.00
2022-09-24T12:04:10.549Z,100.00
2022-09-24T12:06:52.484Z,100.00
2022-09-24T12:09:40.034Z,100.00
2022-09-24T12:12:18.467Z,100.00
2022-09-24T12:14:51.597Z,100.00
2022-09-24T12:17:32.855Z,100.00
2022-09-24T12:20:05.505Z,100.00
2022-09-24T12:22:34.779Z,100.00
2022-09-24T12:25:02.334Z,100.00
2022-09-24T12:27:37.744Z,100.00
2022-09-24T12:30:48.085Z,100.00
2022-09-24T12:33:39.915Z,100.00
2022-09-24T12:36:15.866Z,100.00
2022-09-24T12:38:55.346Z,100.00
2022-09-24T12:41:37.837Z,100.00
2022-09-24T12:44:22.090Z,100.00
2022-09-24T12:46:58.963Z,100.00
2022-09-24T12:49:26.332Z,100.00
2022-09-24T12:51:56.305Z,100.00
2022-09-24T12:54:33.085Z,100.00
2022-09-24T12:57:26.545Z,100.00
2022-09-24T12:59:53.862Z,100.00
2022-09-24T13:02:26.138Z,100.00
2022-09-24T13:05:05.738Z,100.00
2022-09-24T13:07:44.236Z,100.00
2022-09-24T13:10:17.246Z,100.00
2022-09-24T13:12:46.467Z,100.00
2022-09-24T13:15:35.939Z,100.00
2022-09-24T13:18:22.299Z,100.00
2022-09-24T13:21:01.014Z,100.00
2022-09-24T13:23:31.816Z,100.00
2022-09-24T13:25:59.120Z,100.00
2022-09-24T13:28:38.175Z,100.00
2022-09-24T13:31:13.166Z,100.00
2022-09-24T13:33:56.695Z,100.00
2022-09-24T13:36:57.754Z,100.00
2022-09-24T13:39:36.939Z,100.00
2022-09-24T13:42:25.367Z,100.00
2022-09-24T13:44:58.322Z,100.00
2022-09-24T13:47:47.814Z,100.00
2022-09-24T13:50:35.817Z,100.00
2022-09-24T13:53:15.657Z,100.00
2022-09-24T13:55:49.748Z,100.00
2022-09-24T13:58:35.745Z,100.00
2022-09-24T14:01:11.876Z,100.00
2022-09-24T14:03:51.517Z,100.00
2022-09-24T14:06:22.893Z,100.00
2022-09-24T14:08:51.604Z,100.00
2022-09-24T14:11:26.251Z,100.00
2022-09-24T14:13:56.355Z,100.00
2022-09-24T14:16:26.827Z,100.00
2022-09-24T14:19:03.824Z,100.00
2022-09-24T14:21:36.970Z,100.00
2022-09-24T14:24:25.051Z,100.00
2022-09-24T14:26:58.577Z,100.00
2022-09-24T14:29:47.924Z,100.00
2022-09-24T14:32:28.160Z,100.00
2022-09-24T14:35:03.677Z,100.00
2022-09-24T14:37:48.056Z,100.00
2022-09-24T14:40:19.685Z,100.00
2022-09-24T14:42:48.569Z,100.00
2022-09-24T14:45:28.030Z,100.00
2022-09-24T14:48:04.150Z,100.00
2022-09-24T14:50:37.815Z,100.00
2022-09-24T14:53:23.776Z,100.00
2022-09-24T14:55:52.054Z,100.00
2022-09-24T14:58:23.361Z,100.00
2022-09-24T15:00:58.158Z,100.00
2022-09-24T15:03:48.257Z,100.00
2022-09-24T15:06:25.654Z,100.00
2022-09-24T15:09:00.993Z,100.00
2022-09-24T15:11:34.927Z,100.00
2022-09-24T15:14:16.543Z,100.00
2022-09-24T15:16:47.114Z,100.00
2022-09-24T15:19:22.002Z,100.00
2022-09-24T15:21:52.462Z,100.00
2022-09-24T15:24:20.663Z,100.00
2022-09-24T15:27:23.531Z,100.00
2022-09-24T15:29:51.199Z,100.00
2022-09-24T15:32:19.766Z,100.00
2022-09-24T15:34:48.059Z,100.00
2022-09-24T15:37:21.091Z,100.00
2022-09-24T15:39:49.748Z,100.00
2022-09-24T15:42:19.678Z,100.00
2022-09-24T15:44:47.851Z,100.00
2022-09-24T15:47:16.872Z,100.00
2022-09-24T15:49:45.070Z,100.00
2022-09-24T15:52:24.149Z,100.00
2022-09-24T15:54:55.752Z,100.00
2022-09-24T15:57:23.408Z,100.00
2022-09-24T15:59:51.562Z,100.00
2022-09-24T16:02:28.973Z,100.00
2022-09-24T16:05:03.299Z,100.00
2022-09-24T16:07:31.343Z,100.00
2022-09-24T16:09:58.876Z,100.00
2022-09-24T16:12:28.254Z,100.00
2022-09-24T16:14:59.175Z,100.00
2022-09-24T16:17:30.061Z,100.00
2022-09-24T16:19:57.750Z,100.00
2022-09-24T16:22:25.152Z,100.00
2022-09-24T16:24:55.099Z,100.00
2022-09-24T16:27:23.147Z,100.00
2022-09-24T16:29:51.665Z,100.00
2022-09-24T16:32:18.993Z,100.00
2022-09-24T16:34:47.578Z,100.00
2022-09-24T16:37:18.376Z,100.00
2022-09-24T16:39:45.992Z,100.00
2022-09-24T16:42:17.977Z,100.00
2022-09-24T16:44:45.408Z,100.00
2022-09-24T16:47:16.369Z,100.00
2022-09-24T16:49:44.438Z,100.00
2022-09-24T16:52:13.295Z,100.00
2022-09-24T16:54:40.638Z,100.00
2022-09-24T16:57:10.426Z,100.00
2022-09-24T16:59:37.738Z,100.00
2022-09-24T17:02:05.324Z,100.00
2022-09-24T17:04:34.310Z,100.00
2022-09-24T17:07:01.755Z,100.00
2022-09-24T17:09:47.712Z,100.00
2022-09-24T17:12:15.196Z,100.00
2022-09-24T17:14:42.555Z,100.00
2022-09-24T17:17:09.898Z,100.00
2022-09-24T17:19:37.159Z,100.00
2022-09-24T17:22:06.283Z,100.00
2022-09-24T17:24:39.753Z,100.00
2022-09-24T17:27:07.984Z,100.00
2022-09-24T17:29:36.655Z,100.00
2022-09-24T17:32:05.427Z,100.00
2022-09-24T17:34:35.021Z,100.00
2022-09-24T17:37:02.461Z,100.00
2022-09-24T17:39:30.847Z,100.00
2022-09-24T17:41:59.810Z,100.00
2022-09-24T17:44:27.371Z,100.00
2022-09-24T17:46:54.805Z,100.00
2022-09-24T17:49:22.515Z,100.00
2022-09-24T17:51:49.896Z,100.00
2022-09-24T17:54:23.347Z,100.00
2022-09-24T17:56:50.942Z,100.00
2022-09-24T17:59:20.840Z,100.00
2022-09-24T18:01:51.542Z,100.00
2022-09-24T18:04:20.381Z,100.00
2022-09-24T18:06:48.992Z,100.00
2022-09-24T18:09:17.496Z,100.00
2022-09-24T18:11:47.536Z,100.00
2022-09-24T18:14:18.137Z,100.00
2022-09-24T18:16:45.751Z,100.00
2022-09-24T18:19:17.117Z,100.00
2022-09-24T18:21:49.299Z,100.00
2022-09-24T18:24:19.317Z,100.00
2022-09-24T18:26:51.363Z,100.00
2022-09-24T18:29:20.270Z,100.00
2022-09-24T18:31:47.976Z,100.00
2022-09-24T18:34:16.224Z,100.00
2022-09-24T18:36:47.291Z,100.00
2022-09-24T18:39:21.814Z,100.00
2022-09-24T18:41:53.475Z,100.00
2022-09-24T18:44:21.085Z,100.00
2022-09-24T18:46:49.858Z,100.00
2022-09-24T18:49:17.490Z,100.00
2022-09-24T18:51:46.932Z,100.00
2022-09-24T18:54:14.858Z,100.00
2022-09-24T18:56:43.705Z,100.00
2022-09-24T18:59:13.516Z,100.00
2022-09-24T19:01:43.284Z,100.00
2022-09-24T19:04:12.862Z,100.00
2022-09-24T19:06:42.931Z,100.00
2022-09-24T19:09:13.412Z,100.00
2022-09-24T19:11:42.075Z,100.00
2022-09-24T19:14:13.537Z,100.00
2022-09-24T19:16:41.148Z,100.00
2022-09-24T19:19:09.920Z,100.00
2022-09-24T19:21:38.316Z,100.00
2022-09-24T19:24:07.099Z,100.00
2022-09-24T19:26:36.164Z,100.00
2022-09-24T19:29:05.109Z,100.00
2022-09-24T19:31:38.941Z,100.00
2022-09-24T19:34:08.421Z,100.00
2022-09-24T19:36:43.758Z,100.00
2022-09-24T19:39:16.948Z,100.00
2022-09-24T19:41:44.779Z,100.00
2022-09-24T19:44:12.711Z,100.00
2022-09-24T19:46:41.019Z,100.00
2022-09-24T19:49:08.838Z,100.00
2022-09-24T19:51:36.914Z,100.00
2022-09-24T19:54:07.005Z,100.00
2022-09-24T19:56:35.433Z,100.00
2022-09-24T19:59:03.977Z,100.00
2022-09-24T20:01:33.075Z,100.00
2022-09-24T20:04:04.375Z,100.00
2022-09-24T20:06:33.837Z,100.00
2022-09-24T20:09:01.830Z,100.00
2022-09-24T20:11:32.617Z,100.00
2022-09-24T20:14:01.222Z,100.00
2022-09-24T20:16:32.607Z,100.00
2022-09-24T20:19:01.819Z,100.00
2022-09-24T20:21:34.463Z,100.00
2022-09-24T20:24:03.788Z,100.00
2022-09-24T20:26:51.812Z,100.00
2022-09-24T20:29:20.177Z,100.00
2022-09-24T20:31:53.255Z,100.00
2022-09-24T20:34:28.431Z,100.00
2022-09-24T20:36:58.507Z,100.00
2022-09-24T20:39:28.139Z,100.00
2022-09-24T20:41:56.109Z,100.00
2022-09-24T20:44:26.134Z,100.00
2022-09-24T20:46:53.656Z,100.00
2022-09-24T20:49:23.094Z,100.00
2022-09-24T20:51:56.699Z,100.00
2022-09-24T20:54:26.639Z,100.00
2022-09-24T20:56:54.139Z,100.00
2022-09-24T20:59:21.474Z,100.00
2022-09-24T21:01:49.422Z,100.00
2022-09-24T21:04:19.901Z,100.00
2022-09-24T21:06:48.373Z,100.00
2022-09-24T21:09:17.282Z,100.00
2022-09-24T21:11:45.700Z,100.00
2022-09-24T21:14:15.284Z,100.00
2022-09-24T21:16:42.815Z,100.00
2022-09-24T21:19:13.101Z,100.00
2022-09-24T21:21:41.185Z,100.00
2022-09-24T21:24:12.290Z,100.00
2022-09-24T21:26:40.224Z,100.00
2022-09-24T21:29:18.779Z,100.00
2022-09-24T21:31:47.875Z,100.00
2022-09-24T21:34:17.882Z,100.00
2022-09-24T21:36:46.136Z,100.00
2022-09-24T21:39:19.077Z,100.00
2022-09-24T21:41:51.337Z,100.00
2022-09-24T21:44:19.582Z,100.00
2022-09-24T21:46:52.267Z,100.00
2022-09-24T21:49:20.322Z,100.00
2022-09-24T21:51:47.826Z,100.00
2022-09-24T21:54:18.651Z,100.00
2022-09-24T21:56:49.585Z,100.00
2022-09-24T21:59:35.558Z,100.00
2022-09-24T22:02:03.584Z,100.00
2022-09-24T22:04:33.494Z,100.00
2022-09-24T22:07:01.757Z,100.00
2022-09-24T22:09:32.761Z,100.00
2022-09-24T22:12:04.604Z,100.00
2022-09-24T22:14:34.745Z,100.00
2022-09-24T22:17:04.042Z,100.00
2022-09-24T22:19:31.645Z,100.00
2022-09-24T22:21:59.352Z,100.00
2022-09-24T22:24:26.876Z,100.00
2022-09-24T22:26:54.948Z,100.00
2022-09-24T22:29:23.026Z,100.00
2022-09-24T22:31:50.377Z,100.00
2022-09-24T22:34:38.743Z,100.00
2022-09-24T22:37:07.090Z,100.00
2022-09-24T22:39:35.156Z,100.00
2022-09-24T22:42:02.593Z,100.00
2022-09-24T22:44:30.112Z,100.00
2022-09-24T22:46:57.517Z,100.00
2022-09-24T22:49:24.938Z,100.00
2022-09-24T22:51:52.604Z,100.00
2022-09-24T22:54:20.187Z,100.00
2022-09-24T22:56:49.724Z,100.00
2022-09-24T22:59:17.152Z,100.00
2022-09-24T23:01:45.413Z,100.00
2022-09-24T23:04:14.889Z,100.00
2022-09-24T23:06:43.744Z,100.00
2022-09-24T23:09:11.645Z,100.00
2022-09-24T23:11:42.352Z,100.00
2022-09-24T23:14:15.489Z,100.00
2022-09-24T23:16:43.572Z,100.00
2022-09-24T23:19:14.903Z,100.00
2022-09-24T23:21:43.025Z,100.00
2022-09-24T23:24:17.260Z,100.00
2022-09-24T23:26:45.932Z,100.00
2022-09-24T23:29:14.673Z,100.00
2022-09-24T23:31:42.585Z,100.00
2022-09-24T23:34:12.325Z,100.00
2022-09-24T23:36:39.884Z,100.00
2022-09-24T23:39:07.220Z,100.00
2022-09-24T23:41:34.712Z,100.00
2022-09-24T23:44:04.635Z,100.00
2022-09-24T23:46:33.945Z,100.00
2022-09-24T23:49:01.675Z,100.00
2022-09-24T23:51:29.282Z,100.00
2022-09-24T23:53:56.754Z,100.00
2022-09-24T23:56:24.272Z,100.00
2022-09-24T23:58:51.962Z,100.00
